Terminal Aerodrome Forecast
Issued by NWS Louisville, KY

Home | Current Version | Previous Version | Text Only | Print | Product List | Glossary On
Versions: 1 2 3 4 5 6 7 8 9 10 11 12 13 14 15 16 17 18 19 20
507
FTUS43 KLMK 250535 AAB
TAFLEX
TAF AMD
KLEX 250535Z 2506/2606 23009KT P6SM VCSH OVC008
     FM251500 26011KT 3SM SHRA OVC005
     FM251800 27012KT 4SM -SHRA OVC008
     FM252000 27013KT P6SM VCSH OVC015
     FM252300 27011KT P6SM VCSH SCT020 BKN030
     FM260200 27008KT P6SM SCT040=

USA.gov is the U.S. government's official web portal to all federal, state and local government web resources and services.